Time;durP1;ratioP1;P1;durP2;ratioP2;P2;SDS_P1;SDS_P2;PMS_P1;PMS_P2;Temp;Humidity;BMP_temperature;BMP_pressure;BME280_temperature;BME280_humidity;BME280_pressure;Samples;Min_cycle;Max_cycle;Signal;HPM_P1;HPM_P2
2023/05/12 00:01:00;;;;;;;28.48;17.55;;;;;;;;;;5014512;28;20072;-70
2023/05/12 00:03:26;;;;;;;29.77;17.52;;;;;;;;;;5015246;28;20087;-70
2023/05/12 00:05:53;;;;;;;32.95;17.10;;;;;;;;;;4995422;28;20092;-70
2023/05/12 00:08:19;;;;;;;33.08;18.73;;;;;;;;;;5013646;28;20042;-70
2023/05/12 00:10:45;;;;;;;29.13;17.02;;;;;;;;;;5012878;28;20038;-70
2023/05/12 00:13:11;;;;;;;31.20;18.10;;;;;;;;;;5011914;28;20352;-71
2023/05/12 00:15:37;;;;;;;27.60;17.55;;;;;;;;;;5013080;28;20060;-70
2023/05/12 00:18:03;;;;;;;28.70;17.08;;;;;;;;;;4979085;28;20056;-70
2023/05/12 00:20:29;;;;;;;30.83;16.60;;;;;;;;;;5003428;28;20081;-70
2023/05/12 00:22:55;;;;;;;27.27;15.98;;;;;;;;;;5032200;28;20045;-70
2023/05/12 00:25:22;;;;;;;25.48;15.25;;;;;;;;;;5018661;28;20092;-70
2023/05/12 00:27:48;;;;;;;23.45;14.70;;;;;;;;;;5012170;28;20052;-70
2023/05/12 00:30:14;;;;;;;27.52;15.35;;;;;;;;;;5012873;28;20120;-70
2023/05/12 00:32:40;;;;;;;25.33;14.90;;;;;;;;;;5013469;28;20125;-70
2023/05/12 00:35:06;;;;;;;25.95;14.73;;;;;;;;;;5013451;28;20052;-70
2023/05/12 00:37:32;;;;;;;23.70;14.40;;;;;;;;;;5026363;28;20049;-70
2023/05/12 00:39:58;;;;;;;25.02;15.07;;;;;;;;;;5033070;28;20042;-70
2023/05/12 00:42:24;;;;;;;26.48;14.57;;;;;;;;;;5015211;28;20134;-70
2023/05/12 00:44:50;;;;;;;26.67;15.43;;;;;;;;;;5032985;28;20041;-70
2023/05/12 00:47:16;;;;;;;27.90;16.50;;;;;;;;;;5032785;28;20047;-70
2023/05/12 00:49:43;;;;;;;27.70;15.93;;;;;;;;;;5030583;28;20046;-70
2023/05/12 00:52:09;;;;;;;26.48;15.55;;;;;;;;;;5011158;28;20467;-69
2023/05/12 00:54:35;;;;;;;26.25;15.93;;;;;;;;;;5013465;28;20046;-69
2023/05/12 00:57:01;;;;;;;25.88;15.82;;;;;;;;;;4994780;28;20055;-69
2023/05/12 00:59:28;;;;;;;28.05;16.35;;;;;;;;;;5012868;28;20038;-70
2023/05/12 01:01:55;;;;;;;27.60;16.20;;;;;;;;;;5012578;28;20380;-70
2023/05/12 01:04:21;;;;;;;30.38;16.10;;;;;;;;;;5012892;28;20399;-70
2023/05/12 01:06:54;;;;;;;25.75;16.88;;;;;;;;;;5012351;28;20057;-69
2023/05/12 01:09:20;;;;;;;32.20;17.70;;;;;;;;;;5012958;28;20129;-70
2023/05/12 01:11:46;;;;;;;29.27;17.08;;;;;;;;;;5011404;28;20145;-70
2023/05/12 01:14:12;;;;;;;28.60;16.52;;;;;;;;;;5011288;28;20117;-71
2023/05/12 01:16:50;;;;;;;30.02;16.65;;;;;;;;;;5024657;28;20103;-70
2023/05/12 01:19:39;;;;;;;31.67;16.50;;;;;;;;;;5031617;28;20049;-70
2023/05/12 01:22:05;;;;;;;31.27;17.27;;;;;;;;;;4999916;28;20112;-70
2023/05/12 01:24:33;;;;;;;29.60;16.85;;;;;;;;;;5014256;28;20387;-70
2023/05/12 01:27:00;;;;;;;28.83;17.30;;;;;;;;;;5032441;28;20041;-70
2023/05/12 01:29:26;;;;;;;30.15;17.15;;;;;;;;;;5014128;28;20056;-71
2023/05/12 01:31:53;;;;;;;31.40;17.83;;;;;;;;;;5032306;28;20095;-70
2023/05/12 01:34:20;;;;;;;30.75;17.48;;;;;;;;;;5032532;28;20041;-70
2023/05/12 01:36:46;;;;;;;28.80;16.98;;;;;;;;;;5032394;28;20050;-70
2023/05/12 01:39:13;;;;;;;31.52;17.27;;;;;;;;;;5032541;28;20132;-71
2023/05/12 01:41:39;;;;;;;28.95;17.63;;;;;;;;;;5023325;28;20054;-70
2023/05/12 01:44:05;;;;;;;36.97;18.05;;;;;;;;;;5011536;28;20041;-70
2023/05/12 01:46:31;;;;;;;26.90;16.80;;;;;;;;;;5012435;28;20046;-70
2023/05/12 01:48:57;;;;;;;33.95;17.63;;;;;;;;;;5012664;28;20038;-70
2023/05/12 01:51:23;;;;;;;33.42;18.92;;;;;;;;;;5011112;28;20050;-70
2023/05/12 01:53:49;;;;;;;35.40;18.90;;;;;;;;;;5012832;28;20117;-70
2023/05/12 01:56:15;;;;;;;37.05;19.35;;;;;;;;;;5014171;28;20042;-70
2023/05/12 01:58:41;;;;;;;30.60;19.05;;;;;;;;;;5016300;28;20041;-70
2023/05/12 02:01:07;;;;;;;37.38;19.73;;;;;;;;;;5015994;28;20522;-70
2023/05/12 02:03:33;;;;;;;36.40;20.08;;;;;;;;;;4998124;28;20058;-71
2023/05/12 02:05:59;;;;;;;38.60;20.30;;;;;;;;;;5015537;28;20042;-70
2023/05/12 02:08:25;;;;;;;40.25;19.52;;;;;;;;;;5020745;28;20044;-70
2023/05/12 02:11:03;;;;;;;42.70;20.55;;;;;;;;;;5035843;28;20111;-71
2023/05/12 02:13:29;;;;;;;39.28;19.90;;;;;;;;;;5022935;28;20407;-71
2023/05/12 02:15:55;;;;;;;36.25;19.98;;;;;;;;;;4998052;28;20097;-69
2023/05/12 02:18:21;;;;;;;39.60;20.15;;;;;;;;;;5015285;28;20482;-69
2023/05/12 02:20:47;;;;;;;38.05;21.15;;;;;;;;;;5014865;28;20046;-69
2023/05/12 02:23:13;;;;;;;38.92;20.70;;;;;;;;;;5015414;28;20125;-69
2023/05/12 02:25:39;;;;;;;39.63;20.88;;;;;;;;;;5014555;28;20041;-69
2023/05/12 02:28:09;;;;;;;40.45;20.35;;;;;;;;;;5000377;28;20041;-69
2023/05/12 02:30:35;;;;;;;39.42;21.17;;;;;;;;;;5013533;28;20125;-69
2023/05/12 02:33:01;;;;;;;40.75;20.95;;;;;;;;;;5015023;28;20095;-69
2023/05/12 02:35:28;;;;;;;40.67;20.60;;;;;;;;;;5015408;28;20441;-70
2023/05/12 02:37:53;;;;;;;39.80;21.13;;;;;;;;;;5015101;28;20054;-69
2023/05/12 02:40:19;;;;;;;36.97;21.30;;;;;;;;;;5013602;28;20045;-69
2023/05/12 02:42:46;;;;;;;41.00;21.38;;;;;;;;;;4997047;28;20050;-69
2023/05/12 02:45:12;;;;;;;46.80;21.80;;;;;;;;;;5014835;28;20049;-70
2023/05/12 02:47:38;;;;;;;39.53;21.08;;;;;;;;;;5013703;28;20128;-69
2023/05/12 02:50:04;;;;;;;41.38;21.02;;;;;;;;;;5014905;28;20045;-69
2023/05/12 02:52:30;;;;;;;41.97;21.65;;;;;;;;;;4997417;28;20052;-69
2023/05/12 02:54:56;;;;;;;43.15;21.65;;;;;;;;;;5015420;28;20041;-69
2023/05/12 02:57:22;;;;;;;39.85;20.83;;;;;;;;;;4996381;28;20112;-70
2023/05/12 02:59:48;;;;;;;43.45;21.70;;;;;;;;;;4995205;28;20614;-70
2023/05/12 03:02:14;;;;;;;41.60;21.55;;;;;;;;;;5013169;28;20045;-69
2023/05/12 03:04:40;;;;;;;38.75;21.10;;;;;;;;;;5015003;28;20062;-70
2023/05/12 03:07:06;;;;;;;38.30;20.50;;;;;;;;;;4995857;28;20042;-69
2023/05/12 03:09:35;;;;;;;41.97;21.80;;;;;;;;;;5014880;28;20492;-69
2023/05/12 03:12:01;;;;;;;42.42;21.42;;;;;;;;;;5006474;28;20129;-69
2023/05/12 03:14:27;;;;;;;40.42;21.30;;;;;;;;;;5015969;28;20071;-71
2023/05/12 03:16:53;;;;;;;40.05;20.88;;;;;;;;;;5017977;28;20050;-71
2023/05/12 03:19:20;;;;;;;42.47;22.00;;;;;;;;;;5034657;28;20037;-71
2023/05/12 03:21:46;;;;;;;42.13;21.25;;;;;;;;;;5026185;28;20097;-71
2023/05/12 03:24:12;;;;;;;41.25;21.70;;;;;;;;;;5013852;28;20167;-69
2023/05/12 03:26:38;;;;;;;43.88;21.15;;;;;;;;;;5014442;28;20103;-70
2023/05/12 03:29:04;;;;;;;42.33;20.98;;;;;;;;;;5008331;28;20042;-69
2023/05/12 03:31:30;;;;;;;36.25;19.38;;;;;;;;;;4996269;28;20042;-71
2023/05/12 03:33:56;;;;;;;38.90;21.05;;;;;;;;;;5005506;28;20058;-70
2023/05/12 03:36:22;;;;;;;40.67;21.25;;;;;;;;;;5034335;28;20107;-70
2023/05/12 03:38:48;;;;;;;38.63;21.10;;;;;;;;;;5034001;28;20037;-69
2023/05/12 03:41:16;;;;;;;41.75;21.50;;;;;;;;;;5033779;28;20042;-70
2023/05/12 03:43:42;;;;;;;42.50;21.08;;;;;;;;;;5016790;28;20402;-70
2023/05/12 03:46:08;;;;;;;37.88;20.88;;;;;;;;;;5034060;28;20424;-70
2023/05/12 03:48:34;;;;;;;43.67;20.50;;;;;;;;;;5016281;28;20041;-70
2023/05/12 03:51:00;;;;;;;39.63;20.45;;;;;;;;;;5034022;28;20089;-70
2023/05/12 03:53:26;;;;;;;42.35;21.30;;;;;;;;;;5016268;28;20041;-71
2023/05/12 03:55:52;;;;;;;42.72;21.88;;;;;;;;;;5024859;28;20056;-70
2023/05/12 03:58:18;;;;;;;43.13;20.08;;;;;;;;;;5013343;28;20045;-70
2023/05/12 04:00:45;;;;;;;44.20;21.63;;;;;;;;;;5012562;28;20042;-70
2023/05/12 04:03:11;;;;;;;45.35;20.73;;;;;;;;;;5013302;28;20054;-70
2023/05/12 04:05:38;;;;;;;38.03;19.88;;;;;;;;;;5014020;28;20073;-70
2023/05/12 04:08:04;;;;;;;38.30;20.77;;;;;;;;;;4995618;28;20050;-70
2023/05/12 04:10:30;;;;;;;33.08;20.02;;;;;;;;;;5013209;28;20038;-70
2023/05/12 04:12:56;;;;;;;38.78;20.38;;;;;;;;;;5013173;28;20443;-70
2023/05/12 04:15:22;;;;;;;34.47;20.40;;;;;;;;;;5013612;28;20077;-70
2023/05/12 04:17:49;;;;;;;40.30;20.48;;;;;;;;;;5012952;28;20077;-70
2023/05/12 04:20:15;;;;;;;42.08;20.50;;;;;;;;;;4995153;28;20088;-70
2023/05/12 04:22:43;;;;;;;41.88;20.48;;;;;;;;;;5013532;28;20042;-71
2023/05/12 04:25:09;;;;;;;42.47;21.30;;;;;;;;;;5013655;28;20046;-70
2023/05/12 04:27:35;;;;;;;43.85;21.02;;;;;;;;;;5013030;28;20083;-70
2023/05/12 04:30:01;;;;;;;42.80;21.40;;;;;;;;;;5010656;28;20030;-70
2023/05/12 04:32:27;;;;;;;42.70;21.40;;;;;;;;;;5011648;28;20506;-70
2023/05/12 04:34:55;;;;;;;39.78;20.88;;;;;;;;;;5013658;28;20049;-70
2023/05/12 04:37:21;;;;;;;42.08;20.73;;;;;;;;;;5012836;28;20064;-70
2023/05/12 04:39:47;;;;;;;41.85;21.55;;;;;;;;;;5011873;28;20041;-70
2023/05/12 04:42:13;;;;;;;42.85;21.75;;;;;;;;;;4995191;28;20056;-69
2023/05/12 04:44:39;;;;;;;39.10;20.75;;;;;;;;;;4994763;28;20112;-69
2023/05/12 04:47:05;;;;;;;41.50;21.90;;;;;;;;;;5013014;28;20586;-69
2023/05/12 04:49:31;;;;;;;42.95;22.77;;;;;;;;;;5012982;28;20108;-69
2023/05/12 04:51:57;;;;;;;41.00;22.30;;;;;;;;;;5012380;28;20430;-70
2023/05/12 04:54:23;;;;;;;41.65;22.30;;;;;;;;;;5013246;28;20038;-69
2023/05/12 04:56:50;;;;;;;44.00;23.02;;;;;;;;;;5012654;28;20132;-70
2023/05/12 04:59:16;;;;;;;41.40;22.90;;;;;;;;;;5012025;28;20049;-70
2023/05/12 05:01:42;;;;;;;44.90;22.15;;;;;;;;;;5011777;28;20054;-70
2023/05/12 05:04:08;;;;;;;37.78;20.80;;;;;;;;;;5011237;28;20082;-72
2023/05/12 05:06:34;;;;;;;41.50;21.98;;;;;;;;;;5011719;28;20042;-73
2023/05/12 05:09:00;;;;;;;41.53;22.35;;;;;;;;;;5031182;28;20045;-72
2023/05/12 05:11:26;;;;;;;45.92;22.45;;;;;;;;;;5012395;28;20107;-73
2023/05/12 05:13:53;;;;;;;46.22;22.42;;;;;;;;;;5011840;28;20443;-72
2023/05/12 05:16:19;;;;;;;41.78;22.67;;;;;;;;;;4978065;28;20046;-72
2023/05/12 05:18:45;;;;;;;40.78;23.13;;;;;;;;;;5012237;28;20137;-73
2023/05/12 05:21:14;;;;;;;45.78;23.92;;;;;;;;;;4994900;28;20054;-73
2023/05/12 05:23:41;;;;;;;42.83;23.10;;;;;;;;;;5012763;28;20057;-72
2023/05/12 05:26:07;;;;;;;40.78;21.85;;;;;;;;;;4995009;28;20060;-73
2023/05/12 05:28:34;;;;;;;41.15;23.10;;;;;;;;;;4994143;28;20046;-73
2023/05/12 05:31:00;;;;;;;44.70;23.67;;;;;;;;;;5031261;28;20446;-73
2023/05/12 05:33:26;;;;;;;40.30;23.23;;;;;;;;;;5031755;28;20454;-73
2023/05/12 05:35:52;;;;;;;41.72;24.65;;;;;;;;;;5018854;28;20090;-73
2023/05/12 05:38:19;;;;;;;40.22;22.75;;;;;;;;;;5036603;28;20045;-73
2023/05/12 05:40:45;;;;;;;45.90;23.42;;;;;;;;;;5036013;28;20041;-73
2023/05/12 05:43:11;;;;;;;43.67;23.77;;;;;;;;;;5036119;28;20046;-73
2023/05/12 05:45:37;;;;;;;47.05;23.75;;;;;;;;;;5036197;28;20121;-73
2023/05/12 05:48:03;;;;;;;40.20;23.60;;;;;;;;;;5025274;28;20053;-73
2023/05/12 05:50:29;;;;;;;43.47;24.33;;;;;;;;;;5016114;28;20120;-73
2023/05/12 05:52:55;;;;;;;49.65;24.63;;;;;;;;;;5015551;28;20056;-73
2023/05/12 05:55:21;;;;;;;50.75;24.98;;;;;;;;;;5016466;28;20147;-73
2023/05/12 05:57:47;;;;;;;40.85;24.33;;;;;;;;;;4998251;28;20093;-73
2023/05/12 06:00:13;;;;;;;40.88;25.83;;;;;;;;;;5015530;28;20045;-71
2023/05/12 06:02:40;;;;;;;41.35;24.67;;;;;;;;;;4996544;28;20189;-70
2023/05/12 06:05:06;;;;;;;43.95;24.75;;;;;;;;;;5011266;28;20115;-73
2023/05/12 06:07:33;;;;;;;45.50;26.10;;;;;;;;;;5016000;28;20134;-73
2023/05/12 06:10:03;;;;;;;48.15;26.75;;;;;;;;;;5015969;28;20033;-73
2023/05/12 06:12:29;;;;;;;48.80;25.67;;;;;;;;;;4998427;28;20053;-73
2023/05/12 06:14:55;;;;;;;48.67;26.33;;;;;;;;;;4997955;28;20437;-73
2023/05/12 06:17:21;;;;;;;46.22;25.58;;;;;;;;;;5021965;28;20041;-73
2023/05/12 06:19:48;;;;;;;47.95;26.70;;;;;;;;;;5035438;28;20401;-73
2023/05/12 06:22:15;;;;;;;48.35;26.60;;;;;;;;;;5023038;28;20383;-73
2023/05/12 06:24:41;;;;;;;47.10;26.20;;;;;;;;;;5000754;28;20045;-73
2023/05/12 06:27:07;;;;;;;47.53;26.70;;;;;;;;;;5016185;28;20061;-73
2023/05/12 06:29:33;;;;;;;45.45;26.13;;;;;;;;;;5015126;28;20042;-74
2023/05/12 06:31:59;;;;;;;47.03;27.50;;;;;;;;;;5014009;28;20045;-74
2023/05/12 06:34:26;;;;;;;45.08;27.85;;;;;;;;;;4998019;28;20074;-74
2023/05/12 06:36:52;;;;;;;48.25;26.92;;;;;;;;;;5015342;28;20061;-73
2023/05/12 06:39:18;;;;;;;45.85;27.25;;;;;;;;;;5015473;28;20034;-73
2023/05/12 06:41:44;;;;;;;51.70;28.13;;;;;;;;;;5014266;28;20046;-74
2023/05/12 06:44:11;;;;;;;44.55;27.60;;;;;;;;;;5013949;28;20153;-73
2023/05/12 06:46:40;;;;;;;46.33;27.83;;;;;;;;;;5014879;28;20374;-74
2023/05/12 06:49:07;;;;;;;45.55;27.73;;;;;;;;;;5014896;28;20038;-74
2023/05/12 06:51:33;;;;;;;46.92;28.67;;;;;;;;;;5014647;28;20089;-74
2023/05/12 06:54:00;;;;;;;43.97;27.90;;;;;;;;;;5011742;28;20128;-73
2023/05/12 06:56:28;;;;;;;46.75;29.48;;;;;;;;;;5012676;28;20399;-73
2023/05/12 06:58:59;;;;;;;44.88;28.15;;;;;;;;;;5021624;28;20103;-74
2023/05/12 07:01:25;;;;;;;47.83;30.08;;;;;;;;;;5013202;28;20504;-73
2023/05/12 07:03:52;;;;;;;49.40;30.35;;;;;;;;;;5013543;28;20062;-73
2023/05/12 07:06:18;;;;;;;46.72;29.30;;;;;;;;;;5017305;28;20458;-73
2023/05/12 07:08:44;;;;;;;50.80;32.67;;;;;;;;;;5014295;28;20057;-73
2023/05/12 07:11:10;;;;;;;52.60;31.80;;;;;;;;;;5014201;28;20427;-73
2023/05/12 07:13:37;;;;;;;44.30;30.40;;;;;;;;;;5014495;28;20045;-73
2023/05/12 07:16:03;;;;;;;46.92;30.88;;;;;;;;;;5003814;28;20042;-73
2023/05/12 07:18:29;;;;;;;46.97;31.90;;;;;;;;;;5003513;28;20468;-73
2023/05/12 07:20:55;;;;;;;52.65;32.35;;;;;;;;;;5015844;28;20044;-73
2023/05/12 07:23:21;;;;;;;49.45;33.63;;;;;;;;;;5025626;28;20045;-73
2023/05/12 07:25:47;;;;;;;48.05;33.20;;;;;;;;;;4996481;28;20065;-73
2023/05/12 07:28:14;;;;;;;54.97;33.33;;;;;;;;;;5014029;28;20046;-73
2023/05/12 07:30:40;;;;;;;54.80;35.45;;;;;;;;;;5014017;28;20046;-72
2023/05/12 07:33:07;;;;;;;53.60;34.55;;;;;;;;;;5014280;28;20077;-73
2023/05/12 07:35:33;;;;;;;49.53;34.67;;;;;;;;;;4996141;28;20049;-74
2023/05/12 07:37:59;;;;;;;51.58;35.15;;;;;;;;;;5012903;28;20112;-73
2023/05/12 07:40:25;;;;;;;47.33;34.47;;;;;;;;;;4996401;28;20045;-74
2023/05/12 07:42:51;;;;;;;49.85;34.78;;;;;;;;;;4978691;28;20140;-72
2023/05/12 07:45:21;;;;;;;47.88;34.53;;;;;;;;;;5013342;28;20120;-73
2023/05/12 07:47:48;;;;;;;47.35;34.75;;;;;;;;;;5013709;28;20525;-73
2023/05/12 07:50:14;;;;;;;50.20;34.67;;;;;;;;;;5013090;28;20410;-73
2023/05/12 07:52:47;;;;;;;46.90;33.40;;;;;;;;;;4995308;28;20048;-72
2023/05/12 07:55:14;;;;;;;49.67;33.83;;;;;;;;;;5012546;28;20042;-73
2023/05/12 07:57:40;;;;;;;45.97;33.22;;;;;;;;;;5019051;28;20128;-74
2023/05/12 08:00:08;;;;;;;43.13;32.00;;;;;;;;;;5048990;28;20052;-74
2023/05/12 08:02:34;;;;;;;42.97;32.80;;;;;;;;;;5038563;28;20081;-74
2023/05/12 08:05:00;;;;;;;41.75;32.47;;;;;;;;;;5013646;28;20376;-74
2023/05/12 08:07:26;;;;;;;42.50;30.85;;;;;;;;;;5013423;28;20046;-73
2023/05/12 08:09:53;;;;;;;43.47;31.23;;;;;;;;;;5013049;28;20111;-73
2023/05/12 08:12:19;;;;;;;41.08;31.85;;;;;;;;;;5011173;28;20090;-73
2023/05/12 08:14:45;;;;;;;40.67;30.13;;;;;;;;;;5004786;28;20092;-73
2023/05/12 08:17:11;;;;;;;39.78;30.00;;;;;;;;;;4993345;28;20125;-73
2023/05/12 08:19:37;;;;;;;41.85;31.25;;;;;;;;;;5020575;28;20052;-73
2023/05/12 08:22:04;;;;;;;39.90;30.35;;;;;;;;;;4997745;28;20125;-72
2023/05/12 08:24:30;;;;;;;41.63;31.27;;;;;;;;;;5031029;28;20087;-72
2023/05/12 08:26:56;;;;;;;38.05;29.95;;;;;;;;;;5023148;28;20038;-72
2023/05/12 08:29:22;;;;;;;37.13;28.60;;;;;;;;;;5012934;28;20125;-72
2023/05/12 08:31:48;;;;;;;35.65;28.10;;;;;;;;;;4995443;28;20134;-72
2023/05/12 08:34:14;;;;;;;36.22;29.75;;;;;;;;;;5013266;28;20050;-73
2023/05/12 08:36:40;;;;;;;36.70;29.05;;;;;;;;;;5012814;28;20056;-73
2023/05/12 08:39:09;;;;;;;35.65;28.63;;;;;;;;;;5013207;28;20073;-72
2023/05/12 08:41:39;;;;;;;34.00;27.40;;;;;;;;;;5011416;28;20133;-73
2023/05/12 08:44:05;;;;;;;32.10;25.63;;;;;;;;;;4995185;28;20469;-73
2023/05/12 08:46:31;;;;;;;33.55;26.63;;;;;;;;;;5012751;28;20077;-72
2023/05/12 08:48:58;;;;;;;31.80;25.45;;;;;;;;;;4993697;28;20438;-73
2023/05/12 08:51:25;;;;;;;31.70;25.38;;;;;;;;;;5010839;28;20078;-73
2023/05/12 08:53:53;;;;;;;31.15;24.95;;;;;;;;;;4995042;28;20054;-73
2023/05/12 08:56:20;;;;;;;28.40;24.42;;;;;;;;;;5012693;28;20042;-73
2023/05/12 08:58:47;;;;;;;27.17;22.10;;;;;;;;;;5012706;28;20072;-73
2023/05/12 09:01:13;;;;;;;28.77;22.92;;;;;;;;;;5012604;28;20077;-73
2023/05/12 09:03:39;;;;;;;27.23;21.50;;;;;;;;;;5011057;28;20077;-73
2023/05/12 09:06:06;;;;;;;27.27;21.95;;;;;;;;;;5012087;28;20099;-73
2023/05/12 09:08:33;;;;;;;27.75;22.42;;;;;;;;;;4994809;28;20495;-73
2023/05/12 09:10:59;;;;;;;27.25;21.60;;;;;;;;;;5012591;28;20050;-73
2023/05/12 09:13:45;;;;;;;25.38;21.92;;;;;;;;;;5012320;28;20052;-74
2023/05/12 09:16:12;;;;;;;27.00;21.25;;;;;;;;;;5011865;28;20049;-73
2023/05/12 09:18:48;;;;;;;24.70;20.92;;;;;;;;;;5012957;28;20042;-73
2023/05/12 09:21:14;;;;;;;24.75;20.33;;;;;;;;;;5012555;28;20053;-73
2023/05/12 09:23:40;;;;;;;24.02;20.33;;;;;;;;;;5012575;28;20487;-74
2023/05/12 09:26:06;;;;;;;24.58;20.40;;;;;;;;;;5012609;28;20117;-73
2023/05/12 09:28:38;;;;;;;24.30;21.23;;;;;;;;;;5012780;28;20130;-73
2023/05/12 09:31:14;;;;;;;24.05;19.30;;;;;;;;;;5015856;28;20354;-73
2023/05/12 09:33:40;;;;;;;24.55;19.40;;;;;;;;;;5013400;28;20046;-74
2023/05/12 09:36:07;;;;;;;25.73;20.40;;;;;;;;;;5012465;28;20046;-73
2023/05/12 09:38:33;;;;;;;24.50;19.58;;;;;;;;;;5012626;28;20050;-73
2023/05/12 09:40:59;;;;;;;22.60;19.45;;;;;;;;;;5011239;28;20046;-75
2023/05/12 09:43:25;;;;;;;22.98;19.15;;;;;;;;;;5012387;28;20038;-73
2023/05/12 09:45:51;;;;;;;20.77;17.60;;;;;;;;;;5012265;28;20481;-73
2023/05/12 09:48:17;;;;;;;21.95;17.63;;;;;;;;;;5012370;28;20121;-73
2023/05/12 09:50:44;;;;;;;19.15;16.38;;;;;;;;;;5011863;28;20129;-73
2023/05/12 09:53:10;;;;;;;19.85;17.10;;;;;;;;;;5011884;28;20052;-73
2023/05/12 09:55:36;;;;;;;19.77;17.02;;;;;;;;;;5004366;28;20054;-73
2023/05/12 09:58:08;;;;;;;21.05;16.63;;;;;;;;;;5009656;28;20061;-74
2023/05/12 10:00:35;;;;;;;19.83;16.88;;;;;;;;;;5012080;28;20449;-74
2023/05/12 10:03:04;;;;;;;15.93;14.00;;;;;;;;;;5012120;28;20143;-74
2023/05/12 10:05:32;;;;;;;18.13;15.40;;;;;;;;;;5012206;28;20104;-74
2023/05/12 10:08:02;;;;;;;15.63;13.10;;;;;;;;;;5011999;28;20050;-75
2023/05/12 10:10:28;;;;;;;14.98;12.95;;;;;;;;;;5011598;28;20042;-75
2023/05/12 10:12:55;;;;;;;16.67;12.95;;;;;;;;;;5011713;28;20458;-72
2023/05/12 10:15:22;;;;;;;16.75;14.88;;;;;;;;;;5012162;28;20378;-73
2023/05/12 10:17:48;;;;;;;17.65;15.60;;;;;;;;;;5012697;28;20061;-74
2023/05/12 10:20:16;;;;;;;17.95;14.73;;;;;;;;;;5014691;28;20065;-74
2023/05/12 10:22:43;;;;;;;17.13;14.93;;;;;;;;;;5013168;28;20057;-74
2023/05/12 10:25:09;;;;;;;16.83;14.90;;;;;;;;;;5015349;28;20042;-74
2023/05/12 10:27:36;;;;;;;16.88;14.02;;;;;;;;;;5014802;28;20542;-74
2023/05/12 10:30:03;;;;;;;15.98;13.48;;;;;;;;;;5015325;28;20045;-73
2023/05/12 10:32:29;;;;;;;14.88;13.25;;;;;;;;;;4997630;28;20092;-73
2023/05/12 10:34:55;;;;;;;15.45;13.85;;;;;;;;;;5015166;28;20395;-73
2023/05/12 10:37:22;;;;;;;15.10;13.25;;;;;;;;;;5014665;28;20050;-74
2023/05/12 10:39:49;;;;;;;13.70;12.30;;;;;;;;;;5014139;28;20053;-74
2023/05/12 10:42:16;;;;;;;15.00;11.93;;;;;;;;;;4997238;28;20048;-74
2023/05/12 10:44:50;;;;;;;13.93;11.32;;;;;;;;;;5015170;28;20095;-74
2023/05/12 10:47:16;;;;;;;10.57;9.38;;;;;;;;;;5015146;28;20061;-74
2023/05/12 10:49:42;;;;;;;10.25;8.50;;;;;;;;;;4997577;28;20054;-74
2023/05/12 10:52:10;;;;;;;13.75;9.45;;;;;;;;;;5014778;28;20092;-73
2023/05/12 10:54:43;;;;;;;11.25;9.52;;;;;;;;;;5015295;28;20042;-74
2023/05/12 10:57:12;;;;;;;13.02;9.77;;;;;;;;;;5014642;28;20042;-74
2023/05/12 10:59:47;;;;;;;12.68;9.80;;;;;;;;;;5015244;28;20053;-74
2023/05/12 11:02:17;;;;;;;10.05;9.00;;;;;;;;;;5013427;28;20054;-73
2023/05/12 11:04:48;;;;;;;11.63;10.43;;;;;;;;;;4997351;28;20049;-74
2023/05/12 11:07:15;;;;;;;12.75;9.18;;;;;;;;;;5014375;28;20137;-74
2023/05/12 11:09:42;;;;;;;9.25;8.18;;;;;;;;;;5014274;28;20124;-74
2023/05/12 11:12:09;;;;;;;12.43;7.70;;;;;;;;;;5013665;28;20045;-74
2023/05/12 11:14:36;;;;;;;9.48;8.23;;;;;;;;;;5013760;28;20056;-74
2023/05/12 11:17:02;;;;;;;8.77;7.88;;;;;;;;;;5014320;28;20053;-74
2023/05/12 11:19:28;;;;;;;10.43;8.23;;;;;;;;;;5014583;28;20068;-74
2023/05/12 11:21:55;;;;;;;9.48;7.70;;;;;;;;;;5013365;28;20088;-74
2023/05/12 11:24:21;;;;;;;9.90;7.97;;;;;;;;;;4997157;28;20125;-74
2023/05/12 11:26:51;;;;;;;9.10;7.90;;;;;;;;;;5014380;28;20049;-74
2023/05/12 11:29:20;;;;;;;8.52;6.70;;;;;;;;;;4996853;28;20034;-74
2023/05/12 11:31:50;;;;;;;7.47;6.03;;;;;;;;;;5013624;28;20133;-73
2023/05/12 11:34:20;;;;;;;8.43;5.35;;;;;;;;;;5014087;28;20044;-73
2023/05/12 11:36:46;;;;;;;6.95;5.97;;;;;;;;;;4995875;28;20107;-73
2023/05/12 11:39:13;;;;;;;9.20;6.50;;;;;;;;;;5014016;28;20085;-73
2023/05/12 11:41:39;;;;;;;7.22;5.70;;;;;;;;;;5017042;28;20142;-73
2023/05/12 11:44:31;;;;;;;8.82;6.50;;;;;;;;;;5023760;28;20475;-74
2023/05/12 11:46:59;;;;;;;8.40;6.40;;;;;;;;;;5018689;28;20046;-73
2023/05/12 11:49:26;;;;;;;8.43;6.10;;;;;;;;;;5023250;28;20072;-74
2023/05/12 11:51:56;;;;;;;13.32;5.90;;;;;;;;;;5015341;28;20062;-74
2023/05/12 11:54:22;;;;;;;7.35;5.78;;;;;;;;;;5016692;28;20054;-74
2023/05/12 11:56:49;;;;;;;7.75;5.80;;;;;;;;;;5006987;28;20482;-74
2023/05/12 11:59:25;;;;;;;7.95;5.18;;;;;;;;;;5021601;28;20049;-74
2023/05/12 12:01:51;;;;;;;7.35;5.82;;;;;;;;;;5011956;28;20044;-74
2023/05/12 12:04:17;;;;;;;6.18;4.57;;;;;;;;;;5023180;28;20046;-73
2023/05/12 12:06:44;;;;;;;5.43;3.40;;;;;;;;;;5021774;28;20572;-73
2023/05/12 12:09:11;;;;;;;7.43;4.07;;;;;;;;;;5018610;28;20065;-73
2023/05/12 12:11:37;;;;;;;5.70;4.00;;;;;;;;;;5010942;28;20081;-73
2023/05/12 12:14:03;;;;;;;7.82;4.50;;;;;;;;;;5020323;28;20045;-74
2023/05/12 12:16:30;;;;;;;10.00;3.75;;;;;;;;;;5004769;28;20041;-73
2023/05/12 12:18:56;;;;;;;5.65;4.15;;;;;;;;;;5021138;28;20514;-73
2023/05/12 12:21:23;;;;;;;6.70;4.40;;;;;;;;;;5020622;28;20471;-73
2023/05/12 12:23:49;;;;;;;7.28;4.10;;;;;;;;;;5020540;28;20053;-72
2023/05/12 12:26:16;;;;;;;7.03;4.30;;;;;;;;;;5022205;28;20042;-73
2023/05/12 12:28:43;;;;;;;4.97;3.88;;;;;;;;;;5005952;28;20389;-73
2023/05/12 12:31:09;;;;;;;8.30;3.90;;;;;;;;;;5019743;28;20050;-72
2023/05/12 12:33:35;;;;;;;5.18;3.10;;;;;;;;;;4997591;28;20042;-73
2023/05/12 12:36:01;;;;;;;5.63;3.42;;;;;;;;;;5010813;28;20050;-73
2023/05/12 12:38:27;;;;;;;5.57;3.47;;;;;;;;;;5013359;28;20050;-73
2023/05/12 12:40:53;;;;;;;4.50;3.28;;;;;;;;;;4998849;28;20042;-73
2023/05/12 12:43:19;;;;;;;5.15;3.60;;;;;;;;;;5016322;28;20233;-73
2023/05/12 12:45:45;;;;;;;9.38;3.70;;;;;;;;;;4979161;28;20042;-73
2023/05/12 12:48:11;;;;;;;4.45;3.55;;;;;;;;;;5011432;28;20046;-73
2023/05/12 12:50:37;;;;;;;4.97;3.40;;;;;;;;;;5022540;28;20044;-73
2023/05/12 12:53:03;;;;;;;5.85;3.10;;;;;;;;;;5017028;28;20053;-73
2023/05/12 12:55:30;;;;;;;5.43;3.15;;;;;;;;;;5020742;28;20124;-74
2023/05/12 12:57:56;;;;;;;6.25;3.50;;;;;;;;;;5014479;28;20107;-74
2023/05/12 13:00:23;;;;;;;5.90;3.50;;;;;;;;;;5020163;28;20049;-74
2023/05/12 13:02:50;;;;;;;4.32;3.13;;;;;;;;;;5019379;28;20064;-74
2023/05/12 13:05:16;;;;;;;5.95;2.83;;;;;;;;;;5021871;28;20351;-73
2023/05/12 13:07:42;;;;;;;5.60;2.80;;;;;;;;;;5020118;28;20081;-73
2023/05/12 13:10:08;;;;;;;5.82;3.33;;;;;;;;;;4998651;28;20033;-74
2023/05/12 13:12:35;;;;;;;5.68;3.03;;;;;;;;;;4996675;28;20058;-74
2023/05/12 13:15:01;;;;;;;4.85;2.70;;;;;;;;;;5011755;28;20037;-74
2023/05/12 13:17:27;;;;;;;5.32;2.50;;;;;;;;;;5015277;28;20045;-72
2023/05/12 13:19:54;;;;;;;8.15;2.85;;;;;;;;;;5003225;28;20041;-72
2023/05/12 13:22:20;;;;;;;4.05;2.60;;;;;;;;;;5019990;28;20049;-72
2023/05/12 13:24:46;;;;;;;4.88;2.53;;;;;;;;;;5022693;28;20075;-72
2023/05/12 13:27:12;;;;;;;7.75;2.60;;;;;;;;;;5020989;28;20435;-72
2023/05/12 13:29:40;;;;;;;6.30;2.60;;;;;;;;;;5018611;28;20129;-72
2023/05/12 13:32:07;;;;;;;4.18;2.63;;;;;;;;;;5019767;28;20049;-72
2023/05/12 13:34:33;;;;;;;8.27;4.95;;;;;;;;;;5021715;28;20563;-72
2023/05/12 13:36:59;;;;;;;7.53;5.30;;;;;;;;;;5021778;28;20077;-73
2023/05/12 13:39:25;;;;;;;9.50;5.40;;;;;;;;;;5019125;28;20045;-73
2023/05/12 13:41:51;;;;;;;9.30;5.15;;;;;;;;;;5020674;28;20076;-73
2023/05/12 13:44:18;;;;;;;7.20;4.90;;;;;;;;;;5022044;28;20463;-72
2023/05/12 13:46:44;;;;;;;8.20;5.18;;;;;;;;;;5001003;28;20061;-73
2023/05/12 13:49:11;;;;;;;7.43;4.50;;;;;;;;;;5020232;28;20042;-73
2023/05/12 13:51:37;;;;;;;6.90;4.00;;;;;;;;;;5021457;28;20070;-73
2023/05/12 13:54:03;;;;;;;5.20;3.05;;;;;;;;;;5023602;28;20050;-73
2023/05/12 13:56:29;;;;;;;6.55;4.18;;;;;;;;;;5024656;28;20060;-74
2023/05/12 13:58:55;;;;;;;9.20;4.40;;;;;;;;;;5022542;28;20053;-73
2023/05/12 14:01:21;;;;;;;7.10;4.20;;;;;;;;;;5022406;28;20053;-74
2023/05/12 14:03:47;;;;;;;7.28;4.60;;;;;;;;;;5021939;28;20165;-73
2023/05/12 14:06:13;;;;;;;8.13;4.78;;;;;;;;;;5022010;28;20136;-73
2023/05/12 14:08:40;;;;;;;11.10;5.32;;;;;;;;;;5022436;28;20037;-73
2023/05/12 14:11:06;;;;;;;7.90;4.47;;;;;;;;;;5030107;28;20041;-73
2023/05/12 14:13:32;;;;;;;5.97;3.80;;;;;;;;;;5033615;28;20534;-73
2023/05/12 14:15:58;;;;;;;6.70;4.07;;;;;;;;;;5035516;28;20049;-73
2023/05/12 14:18:24;;;;;;;7.63;4.68;;;;;;;;;;5017367;28;20128;-73
2023/05/12 14:20:51;;;;;;;8.07;4.72;;;;;;;;;;5017667;28;20045;-73